Time;durP1;ratioP1;P1;durP2;ratioP2;P2;SDS_P1;SDS_P2;PMS_P1;PMS_P2;Temp;Humidity;BMP_temperature;BMP_pressure;BME280_temperature;BME280_humidity;BME280_pressure;Samples;Min_cycle;Max_cycle;Signal;HPM_P1;HPM_P2
2023/01/02 00:01:00;;;;;;;12.07;6.72;;;10.30;92.30;;;;;;1890054;76;21128;-58
2023/01/02 00:03:29;;;;;;;15.32;10.95;;;10.30;92.20;;;;;;1890061;76;21072;-59
2023/01/02 00:06:00;;;;;;;15.20;10.85;;;10.30;92.20;;;;;;1890035;76;21170;-58
2023/01/02 00:08:29;;;;;;;12.68;9.45;;;10.30;92.10;;;;;;1890108;76;21087;-58
2023/01/02 00:10:58;;;;;;;17.48;10.70;;;10.30;92.10;;;;;;1890199;76;21069;-59
2023/01/02 00:13:28;;;;;;;13.80;9.48;;;10.30;92.10;;;;;;1890038;76;21080;-58
2023/01/02 00:15:57;;;;;;;12.93;9.03;;;10.30;92.10;;;;;;1890056;76;21064;-58
2023/01/02 00:18:26;;;;;;;11.68;8.93;;;10.30;92.10;;;;;;1890154;76;21045;-59
2023/01/02 00:20:55;;;;;;;11.68;9.30;;;10.30;92.10;;;;;;1890086;76;21118;-59
2023/01/02 00:23:24;;;;;;;11.55;8.88;;;10.30;92.20;;;;;;1890131;76;21068;-58
2023/01/02 00:25:53;;;;;;;13.13;9.50;;;10.30;92.10;;;;;;1890014;76;21178;-58
2023/01/02 00:28:23;;;;;;;16.15;9.95;;;10.30;92.20;;;;;;1890160;76;21033;-58
2023/01/02 00:30:52;;;;;;;13.25;9.68;;;10.40;92.20;;;;;;1890219;76;21115;-59
2023/01/02 00:33:21;;;;;;;13.95;9.30;;;10.40;92.20;;;;;;1890046;76;21009;-58
2023/01/02 00:35:50;;;;;;;12.88;8.88;;;10.30;92.10;;;;;;1890132;76;21033;-59
2023/01/02 00:38:19;;;;;;;13.88;8.90;;;10.30;92.10;;;;;;1890126;76;20997;-59
2023/01/02 00:40:48;;;;;;;8.88;6.45;;;10.30;92.10;;;;;;1889969;76;21203;-58
2023/01/02 00:43:17;;;;;;;11.33;7.75;;;10.30;92.20;;;;;;1890062;76;20985;-59
2023/01/02 00:45:48;;;;;;;11.73;9.00;;;10.30;92.20;;;;;;1890004;76;21183;-58
2023/01/02 00:48:17;;;;;;;14.23;9.55;;;10.30;92.10;;;;;;1891974;75;21045;-58
2023/01/02 00:50:46;;;;;;;13.30;8.78;;;10.40;92.10;;;;;;1893179;76;21078;-59
2023/01/02 00:53:16;;;;;;;12.00;8.68;;;10.40;92.10;;;;;;1893147;76;21250;-59
2023/01/02 00:55:45;;;;;;;12.33;8.63;;;10.30;92.30;;;;;;1893129;76;21100;-58
2023/01/02 00:58:14;;;;;;;14.63;10.05;;;10.40;92.10;;;;;;1893128;76;20989;-58
2023/01/02 01:00:43;;;;;;;12.15;8.73;;;10.30;92.10;;;;;;1893133;76;21132;-58
2023/01/02 01:03:12;;;;;;;12.55;9.15;;;10.30;92.10;;;;;;1893132;76;21142;-58
2023/01/02 01:05:42;;;;;;;12.95;9.03;;;10.30;92.10;;;;;;1893200;76;21009;-58
2023/01/02 01:08:11;;;;;;;12.35;9.00;;;10.30;92.10;;;;;;1893184;76;21078;-58
2023/01/02 01:10:40;;;;;;;12.20;7.97;;;10.30;92.10;;;;;;1893153;76;21083;-58
2023/01/02 01:13:09;;;;;;;14.23;9.30;;;10.30;92.10;;;;;;1893146;76;21100;-58
2023/01/02 01:15:38;;;;;;;10.48;7.67;;;10.20;92.10;;;;;;1893119;76;21064;-58
2023/01/02 01:18:07;;;;;;;11.57;9.00;;;10.30;92.20;;;;;;1893069;76;21305;-59
2023/01/02 01:20:40;;;;;;;9.83;7.53;;;10.30;92.10;;;;;;1893249;76;21017;-58
2023/01/02 01:23:10;;;;;;;12.82;8.40;;;10.30;92.10;;;;;;1893129;76;21033;-58
2023/01/02 01:25:39;;;;;;;10.70;6.42;;;10.20;92.20;;;;;;1893060;76;21605;-58
2023/01/02 01:28:08;;;;;;;10.60;7.90;;;10.20;92.10;;;;;;1893111;76;21124;-59
2023/01/02 01:30:37;;;;;;;11.15;7.45;;;10.30;92.10;;;;;;1893135;76;21083;-58
2023/01/02 01:33:06;;;;;;;9.70;7.33;;;10.30;92.10;;;;;;1893186;76;21004;-58
2023/01/02 01:35:35;;;;;;;13.50;9.25;;;10.30;92.00;;;;;;1893075;76;21088;-58
2023/01/02 01:38:04;;;;;;;12.80;8.45;;;10.30;92.00;;;;;;1893117;76;21076;-58
2023/01/02 01:40:40;;;;;;;10.28;6.95;;;10.30;92.00;;;;;;1893108;76;21013;-58
2023/01/02 01:43:15;;;;;;;12.43;7.58;;;10.30;92.00;;;;;;1893123;76;21118;-59
2023/01/02 01:45:45;;;;;;;8.63;6.12;;;10.30;92.10;;;;;;1893087;76;21076;-59
2023/01/02 01:48:17;;;;;;;14.38;9.15;;;10.30;92.10;;;;;;1893171;75;21064;-59
2023/01/02 01:50:46;;;;;;;9.73;6.75;;;10.30;92.00;;;;;;1893118;76;21076;-58
2023/01/02 01:53:18;;;;;;;12.10;9.13;;;10.30;92.00;;;;;;1893172;76;21083;-59
2023/01/02 01:55:52;;;;;;;8.38;6.20;;;10.30;92.00;;;;;;1893194;76;21033;-58
2023/01/02 01:58:24;;;;;;;10.10;8.10;;;10.30;91.90;;;;;;1892699;76;21142;-59
2023/01/02 02:00:54;;;;;;;12.35;7.72;;;10.30;91.90;;;;;;1893227;76;21012;-59
2023/01/02 02:03:25;;;;;;;11.55;7.85;;;10.30;91.80;;;;;;1893224;76;21017;-59
2023/01/02 02:05:56;;;;;;;12.00;8.53;;;10.30;91.80;;;;;;1893174;76;21088;-58
2023/01/02 02:08:37;;;;;;;10.85;8.03;;;10.40;91.80;;;;;;1893229;76;21079;-59
2023/01/02 02:11:07;;;;;;;10.18;8.10;;;10.40;91.80;;;;;;1893357;76;21095;-58
2023/01/02 02:13:36;;;;;;;8.88;5.60;;;10.30;91.80;;;;;;1893238;76;21012;-58
2023/01/02 02:16:07;;;;;;;11.25;8.08;;;10.30;91.80;;;;;;1893288;76;21098;-58
2023/01/02 02:18:51;;;;;;;12.45;8.90;;;10.30;91.80;;;;;;1893210;76;21119;-58
2023/01/02 02:21:31;;;;;;;8.80;7.33;;;10.40;91.80;;;;;;1886163;76;21510;-59
2023/01/02 02:24:36;;;;;;;9.95;7.33;;;10.40;91.60;;;;;;1893239;76;21161;-58
2023/01/02 02:27:14;;;;;;;9.03;6.80;;;10.40;91.70;;;;;;1893160;76;21189;-58
2023/01/02 02:29:55;;;;;;;12.43;7.40;;;10.30;91.60;;;;;;1890992;76;21060;-58
2023/01/02 02:32:38;;;;;;;11.43;6.83;;;10.30;91.50;;;;;;1893287;76;21086;-58
2023/01/02 02:35:26;;;;;;;12.03;8.33;;;10.30;91.60;;;;;;1892793;76;21024;-58
2023/01/02 02:38:10;;;;;;;12.23;9.08;;;10.30;91.50;;;;;;1892483;76;21234;-58
2023/01/02 02:40:57;;;;;;;14.28;8.13;;;10.40;91.60;;;;;;1838046;76;21076;-58
2023/01/02 02:43:49;;;;;;;8.25;6.17;;;10.40;91.60;;;;;;1891828;76;21149;-59
2023/01/02 02:46:21;;;;;;;10.45;7.15;;;10.30;91.50;;;;;;1893302;76;21012;-58
2023/01/02 02:49:28;;;;;;;10.18;8.30;;;10.30;91.50;;;;;;1891629;75;21170;-58
2023/01/02 02:52:17;;;;;;;6.58;4.00;;;10.30;91.60;;;;;;1890074;76;21146;-58
2023/01/02 02:55:04;;;;;;;11.78;8.43;;;10.30;91.50;;;;;;1890170;76;21158;-58
2023/01/02 02:57:34;;;;;;;10.30;7.67;;;10.30;91.60;;;;;;1889636;76;21102;-59
2023/01/02 03:00:05;;;;;;;10.48;7.60;;;10.30;91.60;;;;;;1890108;76;21049;-59
2023/01/02 03:02:36;;;;;;;9.35;7.50;;;10.30;91.60;;;;;;1890126;76;21460;-58
2023/01/02 03:05:07;;;;;;;11.08;8.18;;;10.30;91.60;;;;;;1890090;76;21012;-59
2023/01/02 03:07:48;;;;;;;14.75;6.90;;;10.30;91.60;;;;;;1890106;76;20981;-58
2023/01/02 03:10:29;;;;;;;11.97;8.40;;;10.30;91.50;;;;;;1889822;76;21472;-58
2023/01/02 03:13:15;;;;;;;14.87;8.40;;;10.30;91.60;;;;;;1890193;76;21036;-59
2023/01/02 03:16:13;;;;;;;12.05;7.97;;;10.30;91.50;;;;;;1889660;76;20989;-58
2023/01/02 03:18:47;;;;;;;12.33;7.60;;;10.30;91.50;;;;;;1890212;76;21198;-58
2023/01/02 03:21:31;;;;;;;12.23;8.30;;;10.30;91.50;;;;;;1889398;76;21660;-58
2023/01/02 03:24:06;;;;;;;10.85;7.15;;;10.30;91.50;;;;;;1890262;76;21036;-57
2023/01/02 03:26:37;;;;;;;9.93;7.00;;;10.30;91.50;;;;;;1888681;76;21013;-57
2023/01/02 03:29:09;;;;;;;10.88;8.15;;;10.30;91.50;;;;;;1890145;76;21068;-57
2023/01/02 03:31:40;;;;;;;9.20;6.55;;;10.30;91.50;;;;;;1889991;76;21048;-57
2023/01/02 03:34:12;;;;;;;9.85;7.95;;;10.30;91.50;;;;;;1890204;76;21161;-58
2023/01/02 03:36:44;;;;;;;11.08;7.55;;;10.30;91.50;;;;;;1890190;76;21529;-57
2023/01/02 03:39:18;;;;;;;11.33;8.63;;;10.40;91.60;;;;;;1890130;76;21116;-58
2023/01/02 03:41:59;;;;;;;11.35;8.08;;;10.40;91.60;;;;;;1890334;76;21016;-57
2023/01/02 03:44:34;;;;;;;11.15;9.18;;;10.30;91.50;;;;;;1856351;76;21043;-58
2023/01/02 03:47:21;;;;;;;9.58;8.50;;;10.40;91.60;;;;;;1888645;76;21021;-57
2023/01/02 03:49:53;;;;;;;10.88;7.72;;;10.30;91.50;;;;;;1892032;75;21131;-58
2023/01/02 03:52:23;;;;;;;10.25;7.37;;;10.30;91.50;;;;;;1893280;76;20993;-57
2023/01/02 03:54:53;;;;;;;12.75;8.83;;;10.30;91.50;;;;;;1893222;76;21459;-58
2023/01/02 03:57:27;;;;;;;8.88;7.58;;;10.30;91.50;;;;;;1893156;76;21161;-57
2023/01/02 04:00:08;;;;;;;13.75;7.60;;;10.30;91.40;;;;;;1892730;76;21048;-57
2023/01/02 04:02:55;;;;;;;10.40;8.03;;;10.30;91.40;;;;;;1893158;76;21064;-58
2023/01/02 04:05:27;;;;;;;11.22;7.67;;;10.30;91.40;;;;;;1886751;76;21028;-58
2023/01/02 04:08:05;;;;;;;12.18;8.45;;;10.30;91.50;;;;;;1893051;76;21122;-58
2023/01/02 04:10:37;;;;;;;11.95;7.87;;;10.40;91.50;;;;;;1893205;76;21040;-58
2023/01/02 04:13:11;;;;;;;10.75;7.55;;;10.30;91.50;;;;;;1893144;76;21033;-58
2023/01/02 04:15:43;;;;;;;10.32;7.70;;;10.30;91.40;;;;;;1893230;76;21198;-57
2023/01/02 04:18:15;;;;;;;11.18;8.23;;;10.30;91.40;;;;;;1893302;76;21532;-57
2023/01/02 04:20:47;;;;;;;10.98;7.58;;;10.30;91.40;;;;;;1891681;76;21056;-58
2023/01/02 04:23:18;;;;;;;10.28;6.60;;;10.30;91.50;;;;;;1893194;76;21004;-57
2023/01/02 04:26:11;;;;;;;11.20;8.23;;;10.30;91.40;;;;;;1893235;76;21458;-58
2023/01/02 04:28:41;;;;;;;8.90;5.47;;;10.30;91.40;;;;;;1891846;76;21130;-58
2023/01/02 04:31:22;;;;;;;13.35;8.45;;;10.40;91.40;;;;;;1893170;76;21127;-58
2023/01/02 04:33:56;;;;;;;9.33;7.30;;;10.40;91.40;;;;;;1892948;76;21033;-58
2023/01/02 04:36:26;;;;;;;10.80;7.08;;;10.40;91.50;;;;;;1892566;76;21020;-58
2023/01/02 04:38:55;;;;;;;13.70;8.33;;;10.40;91.40;;;;;;1893173;76;21091;-58
2023/01/02 04:41:29;;;;;;;14.53;8.18;;;10.40;91.40;;;;;;1893113;76;21053;-57
2023/01/02 04:43:59;;;;;;;10.90;8.48;;;10.40;91.40;;;;;;1893175;76;21100;-57
2023/01/02 04:46:28;;;;;;;11.80;7.62;;;10.40;91.40;;;;;;1893237;76;21016;-58
2023/01/02 04:48:58;;;;;;;11.88;8.73;;;10.40;91.40;;;;;;1893093;75;21016;-57
2023/01/02 04:51:27;;;;;;;13.00;9.05;;;10.40;91.40;;;;;;1842147;78;21004;-57
2023/01/02 04:53:56;;;;;;;16.57;8.38;;;10.30;91.40;;;;;;1841995;78;21110;-57
2023/01/02 04:56:26;;;;;;;12.45;7.92;;;10.30;91.70;;;;;;1842079;78;21093;-57
2023/01/02 04:58:55;;;;;;;14.85;8.95;;;10.30;91.50;;;;;;1842095;78;21134;-58
2023/01/02 05:01:24;;;;;;;14.03;8.78;;;10.30;91.70;;;;;;1842119;78;21080;-57
2023/01/02 05:03:54;;;;;;;15.03;9.85;;;10.30;91.40;;;;;;1842120;78;21093;-58
2023/01/02 05:06:23;;;;;;;12.65;8.43;;;10.30;91.40;;;;;;1842109;78;21052;-57
2023/01/02 05:08:52;;;;;;;12.23;7.80;;;10.30;91.50;;;;;;1842041;78;21097;-57
2023/01/02 05:11:21;;;;;;;11.43;7.78;;;10.30;91.50;;;;;;1842165;78;21125;-57
2023/01/02 05:13:51;;;;;;;11.53;8.95;;;10.30;91.50;;;;;;1841974;78;21227;-58
2023/01/02 05:16:20;;;;;;;10.08;8.40;;;10.30;91.50;;;;;;1842001;78;21131;-58
2023/01/02 05:18:49;;;;;;;13.93;9.25;;;10.30;91.60;;;;;;1842015;78;21146;-57
2023/01/02 05:24:06;;;;;;;13.32;8.88;;;10.30;91.60;;;;;;1841968;78;21063;-57
2023/01/02 05:26:35;;;;;;;13.43;10.15;;;10.30;91.60;;;;;;1841973;78;21028;-57
2023/01/02 05:29:04;;;;;;;13.75;8.85;;;10.30;91.60;;;;;;1841935;78;21895;-57
2023/01/02 05:31:33;;;;;;;17.73;12.05;;;10.30;91.70;;;;;;1841964;77;21071;-57
2023/01/02 05:34:03;;;;;;;16.73;9.95;;;10.30;91.70;;;;;;1841981;78;21056;-57
2023/01/02 05:36:32;;;;;;;10.80;8.58;;;10.30;91.70;;;;;;1842142;77;21060;-57
2023/01/02 05:39:01;;;;;;;14.98;9.75;;;10.30;91.70;;;;;;1842169;78;21572;-58
2023/01/02 05:41:30;;;;;;;12.55;9.15;;;10.30;91.70;;;;;;1842069;78;21095;-57
2023/01/02 05:43:59;;;;;;;14.58;9.10;;;10.30;91.70;;;;;;1842075;78;21117;-57
2023/01/02 05:46:29;;;;;;;13.05;9.00;;;10.30;91.70;;;;;;1842180;78;21117;-57
2023/01/02 05:48:58;;;;;;;11.05;7.70;;;10.30;91.60;;;;;;1842024;78;21056;-57
2023/01/02 05:51:27;;;;;;;14.25;9.03;;;10.30;91.60;;;;;;1881087;74;21052;-58
2023/01/02 05:53:56;;;;;;;11.10;8.50;;;10.30;91.60;;;;;;1893302;76;21040;-57
2023/01/02 05:56:27;;;;;;;8.95;6.90;;;10.30;91.60;;;;;;1893127;76;21122;-57
2023/01/02 05:58:56;;;;;;;11.20;8.75;;;10.30;91.60;;;;;;1893102;76;21032;-57
2023/01/02 06:01:27;;;;;;;12.18;9.23;;;10.30;91.60;;;;;;1893090;76;21029;-57
2023/01/02 06:03:58;;;;;;;14.47;8.30;;;10.40;91.60;;;;;;1893125;76;21028;-57
2023/01/02 06:06:32;;;;;;;11.85;9.30;;;10.40;91.60;;;;;;1893078;76;21077;-57
2023/01/02 06:09:02;;;;;;;12.25;8.00;;;10.40;91.60;;;;;;1892522;76;21203;-58
2023/01/02 06:11:31;;;;;;;12.95;8.80;;;10.40;91.60;;;;;;1893055;76;21068;-57
2023/01/02 06:14:01;;;;;;;8.90;7.20;;;10.40;91.60;;;;;;1893019;76;21055;-57
2023/01/02 06:16:30;;;;;;;10.60;8.18;;;10.50;91.50;;;;;;1893146;76;21122;-58
2023/01/02 06:18:59;;;;;;;12.73;8.58;;;10.50;91.50;;;;;;1893227;76;21041;-58
2023/01/02 06:21:28;;;;;;;12.30;8.83;;;10.60;91.50;;;;;;1893150;76;21038;-58
2023/01/02 06:23:58;;;;;;;11.12;8.23;;;10.60;91.50;;;;;;1893000;76;21113;-57
2023/01/02 06:26:29;;;;;;;12.93;9.03;;;10.60;91.50;;;;;;1893037;76;21012;-57
2023/01/02 06:28:58;;;;;;;10.25;6.85;;;10.60;91.40;;;;;;1892978;76;21020;-58
2023/01/02 06:31:28;;;;;;;10.28;8.05;;;10.70;91.40;;;;;;1893055;76;21099;-57
2023/01/02 06:34:01;;;;;;;11.83;7.83;;;10.80;91.40;;;;;;1893065;76;21001;-57
2023/01/02 06:36:32;;;;;;;11.20;8.28;;;10.80;91.30;;;;;;1893180;76;21024;-58
2023/01/02 06:39:02;;;;;;;10.53;7.75;;;10.80;91.30;;;;;;1893081;76;21075;-57
2023/01/02 06:41:31;;;;;;;11.68;8.55;;;10.90;91.30;;;;;;1893297;76;21074;-58
2023/01/02 06:44:00;;;;;;;11.28;8.45;;;10.90;91.30;;;;;;1893185;76;21503;-58
2023/01/02 06:46:29;;;;;;;10.25;8.23;;;11.00;91.50;;;;;;1893213;76;21009;-57
2023/01/02 06:48:58;;;;;;;13.05;7.20;;;11.00;91.20;;;;;;1893218;76;21049;-57
2023/01/02 06:51:27;;;;;;;13.88;8.28;;;11.00;91.00;;;;;;1891716;75;21053;-57
2023/01/02 06:53:57;;;;;;;10.70;7.08;;;11.10;91.10;;;;;;1890043;76;21177;-58
2023/01/02 06:56:26;;;;;;;13.15;8.35;;;11.10;90.90;;;;;;1890181;76;21143;-58
2023/01/02 06:58:55;;;;;;;9.58;7.25;;;11.10;90.90;;;;;;1890114;76;21001;-58
2023/01/02 07:01:24;;;;;;;10.43;7.75;;;11.20;90.80;;;;;;1890211;76;21111;-58
2023/01/02 07:03:54;;;;;;;11.33;7.72;;;11.20;90.70;;;;;;1890324;76;21032;-58
2023/01/02 07:06:26;;;;;;;10.28;7.53;;;11.30;90.80;;;;;;1890130;76;21033;-58
2023/01/02 07:08:54;;;;;;;9.40;6.83;;;11.30;90.80;;;;;;1890086;76;21519;-57
2023/01/02 07:11:24;;;;;;;11.05;7.45;;;11.30;90.60;;;;;;1890020;76;21009;-57
2023/01/02 07:13:55;;;;;;;7.95;6.15;;;11.30;90.40;;;;;;1890271;76;21037;-57
2023/01/02 07:16:24;;;;;;;9.38;7.12;;;11.40;90.50;;;;;;1890052;76;21052;-58
2023/01/02 07:18:55;;;;;;;15.03;7.72;;;11.40;90.50;;;;;;1890187;76;21036;-57
2023/01/02 07:21:24;;;;;;;14.05;8.48;;;11.40;90.60;;;;;;1890103;76;21036;-58
2023/01/02 07:23:54;;;;;;;10.05;7.87;;;11.50;90.50;;;;;;1890065;76;21032;-58
2023/01/02 07:26:23;;;;;;;11.20;7.65;;;11.50;90.30;;;;;;1890029;76;21029;-57
2023/01/02 07:28:52;;;;;;;9.23;6.47;;;11.50;90.20;;;;;;1890014;76;21024;-57
2023/01/02 07:31:21;;;;;;;8.43;6.65;;;11.50;90.20;;;;;;1890006;75;21558;-57
2023/01/02 07:33:51;;;;;;;7.92;6.75;;;11.60;89.70;;;;;;1890034;76;21110;-58
2023/01/02 07:36:21;;;;;;;9.10;7.00;;;11.60;90.00;;;;;;1890090;76;21075;-58
2023/01/02 07:38:54;;;;;;;8.65;7.75;;;11.70;90.00;;;;;;1890035;76;21013;-58
2023/01/02 07:41:25;;;;;;;13.53;6.37;;;11.70;90.00;;;;;;1890087;76;21424;-57
2023/01/02 07:43:55;;;;;;;12.33;7.85;;;11.80;89.90;;;;;;1889973;76;21029;-58
2023/01/02 07:46:24;;;;;;;9.78;7.10;;;11.80;89.40;;;;;;1889944;76;21087;-58
2023/01/02 07:48:53;;;;;;;8.78;6.50;;;11.80;89.40;;;;;;1890113;76;21052;-58
2023/01/02 07:51:23;;;;;;;12.95;8.28;;;11.90;88.70;;;;;;1890621;75;21146;-58
2023/01/02 07:53:52;;;;;;;7.58;5.92;;;11.90;88.70;;;;;;1893062;76;21133;-58
2023/01/02 07:56:21;;;;;;;7.62;6.25;;;11.90;89.00;;;;;;1893028;76;21064;-58
2023/01/02 07:58:51;;;;;;;8.55;6.50;;;11.90;88.30;;;;;;1893188;76;21041;-58
2023/01/02 08:01:20;;;;;;;6.90;6.00;;;11.90;88.40;;;;;;1893188;76;21110;-58
2023/01/02 08:03:49;;;;;;;7.95;6.08;;;11.90;88.80;;;;;;1893186;76;21040;-58
2023/01/02 08:06:19;;;;;;;7.50;5.47;;;11.90;88.00;;;;;;1893150;76;21033;-58
2023/01/02 08:08:48;;;;;;;9.73;6.75;;;11.90;87.50;;;;;;1893146;76;21079;-58
2023/01/02 08:11:19;;;;;;;8.95;7.15;;;12.00;87.80;;;;;;1893186;76;21009;-57
2023/01/02 08:13:49;;;;;;;8.35;6.75;;;12.00;88.00;;;;;;1893271;76;21102;-58
2023/01/02 08:16:20;;;;;;;8.48;6.92;;;12.00;87.60;;;;;;1893144;76;21012;-58
2023/01/02 08:18:51;;;;;;;11.73;7.45;;;12.10;87.70;;;;;;1893082;76;21016;-58
2023/01/02 08:21:21;;;;;;;10.60;6.92;;;12.10;87.80;;;;;;1893158;76;21056;-59
2023/01/02 08:23:50;;;;;;;8.68;7.15;;;12.10;87.50;;;;;;1893160;76;21083;-58
2023/01/02 08:26:19;;;;;;;8.33;6.17;;;12.20;87.70;;;;;;1893058;76;21404;-58
2023/01/02 08:28:49;;;;;;;9.98;6.62;;;12.20;87.00;;;;;;1893149;76;21087;-57
2023/01/02 08:31:21;;;;;;;9.70;7.12;;;12.30;87.10;;;;;;1893038;76;21012;-57
2023/01/02 08:33:50;;;;;;;14.03;6.78;;;12.30;86.90;;;;;;1892957;74;21024;-57
2023/01/02 08:36:20;;;;;;;10.60;6.35;;;12.30;87.30;;;;;;1892969;76;21020;-57
2023/01/02 08:38:49;;;;;;;7.55;6.17;;;12.40;87.50;;;;;;1893004;76;21009;-58
2023/01/02 08:41:32;;;;;;;12.93;8.83;;;12.40;86.70;;;;;;1893057;76;21032;-57
2023/01/02 08:44:01;;;;;;;7.97;6.30;;;12.40;86.40;;;;;;1891359;76;21138;-58
2023/01/02 08:46:32;;;;;;;7.20;6.33;;;12.50;86.40;;;;;;1892902;76;21083;-57
2023/01/02 08:49:01;;;;;;;7.53;5.78;;;12.50;86.90;;;;;;1893008;76;21008;-58
2023/01/02 08:51:31;;;;;;;9.73;6.17;;;12.50;86.20;;;;;;1893132;76;21032;-57
2023/01/02 08:54:00;;;;;;;8.30;6.47;;;12.60;86.30;;;;;;1890006;75;21056;-57
2023/01/02 08:56:32;;;;;;;8.70;6.53;;;12.60;86.10;;;;;;1890039;76;21071;-58
2023/01/02 08:59:03;;;;;;;6.67;5.37;;;12.60;86.00;;;;;;1890036;76;21131;-58
2023/01/02 09:01:33;;;;;;;9.10;6.87;;;12.60;86.90;;;;;;1890069;76;21071;-57
2023/01/02 09:04:02;;;;;;;7.15;5.75;;;12.70;85.70;;;;;;1890082;76;21042;-58
2023/01/02 09:06:33;;;;;;;8.85;6.30;;;12.70;85.40;;;;;;1890122;76;20995;-58
2023/01/02 09:09:03;;;;;;;8.38;5.87;;;12.70;86.00;;;;;;1890129;76;21142;-58
2023/01/02 09:11:35;;;;;;;8.33;6.28;;;12.70;85.60;;;;;;1890121;76;21017;-58
2023/01/02 09:14:05;;;;;;;9.63;5.78;;;12.80;86.00;;;;;;1890148;76;21032;-58
2023/01/02 09:16:34;;;;;;;17.85;6.30;;;12.80;85.10;;;;;;1890019;76;21122;-58
2023/01/02 09:19:05;;;;;;;7.83;5.45;;;12.80;85.40;;;;;;1890100;76;21005;-58
2023/01/02 09:21:35;;;;;;;6.87;5.83;;;12.80;85.10;;;;;;1889978;76;21049;-58
2023/01/02 09:24:04;;;;;;;8.00;6.03;;;12.90;85.00;;;;;;1890001;76;21123;-57
2023/01/02 09:26:33;;;;;;;11.05;6.50;;;12.90;84.80;;;;;;1889874;76;21056;-57
2023/01/02 09:29:02;;;;;;;7.45;5.83;;;12.90;84.80;;;;;;1889978;76;21060;-58
2023/01/02 09:31:32;;;;;;;7.33;5.53;;;12.90;84.90;;;;;;1889975;76;21020;-58
2023/01/02 09:34:01;;;;;;;6.70;5.95;;;12.80;84.90;;;;;;1889963;76;21028;-58
2023/01/02 09:36:31;;;;;;;7.58;5.75;;;12.80;84.60;;;;;;1889994;76;21013;-58
2023/01/02 09:39:01;;;;;;;8.23;6.28;;;12.80;84.70;;;;;;1890042;76;21013;-58
2023/01/02 09:41:45;;;;;;;7.62;6.12;;;12.80;84.70;;;;;;1890117;76;21111;-58
2023/01/02 09:44:22;;;;;;;9.85;5.72;;;12.80;84.80;;;;;;1889998;76;20985;-58
2023/01/02 09:46:54;;;;;;;7.85;6.47;;;12.90;85.20;;;;;;1889989;76;21118;-57
2023/01/02 09:49:26;;;;;;;18.35;11.22;;;12.90;84.60;;;;;;1890121;76;21118;-58
2023/01/02 09:51:55;;;;;;;12.68;6.97;;;13.00;84.80;;;;;;1890109;76;21475;-58
2023/01/02 09:54:29;;;;;;;8.30;6.17;;;13.00;84.80;;;;;;1892698;75;21522;-58
2023/01/02 09:57:07;;;;;;;7.42;6.42;;;13.00;84.70;;;;;;1892078;76;21122;-57
2023/01/02 09:59:42;;;;;;;7.85;5.80;;;13.10;84.60;;;;;;1892476;76;21032;-57
2023/01/02 10:02:17;;;;;;;7.78;6.58;;;13.10;84.20;;;;;;1869336;76;21041;-58
2023/01/02 10:05:13;;;;;;;12.78;7.08;;;13.10;84.60;;;;;;1893224;76;21024;-58
2023/01/02 10:07:59;;;;;;;9.70;6.33;;;13.20;84.40;;;;;;1845282;76;21145;-57
2023/01/02 10:10:34;;;;;;;9.00;6.37;;;13.10;84.80;;;;;;1892699;76;21040;-58
2023/01/02 10:13:31;;;;;;;11.18;6.17;;;13.20;84.50;;;;;;1892901;76;21024;-57
2023/01/02 10:16:03;;;;;;;9.05;6.53;;;13.20;83.40;;;;;;1893045;76;20995;-58
2023/01/02 10:18:42;;;;;;;9.45;6.85;;;13.20;84.30;;;;;;1893164;76;21138;-57
2023/01/02 10:21:13;;;;;;;6.72;5.65;;;13.20;83.90;;;;;;1893112;76;21024;-57
2023/01/02 10:23:48;;;;;;;11.65;6.22;;;13.20;83.90;;;;;;1893231;76;21072;-57
2023/01/02 10:26:17;;;;;;;;;;;13.20;84.00;;;;;;1895875;76;21047;-58
2023/01/02 10:29:02;;;;;;;8.28;6.50;;;13.20;82.90;;;;;;1893276;76;20096;-57
2023/01/02 10:31:46;;;;;;;10.30;6.30;;;13.20;84.00;;;;;;1870065;76;21013;-58
2023/01/02 10:34:17;;;;;;;10.48;6.70;;;13.20;83.80;;;;;;1877135;76;21021;-58
2023/01/02 10:36:48;;;;;;;7.10;5.85;;;13.20;83.90;;;;;;1893195;76;21048;-57
2023/01/02 10:39:20;;;;;;;8.95;7.10;;;13.20;84.30;;;;;;1893155;76;21009;-57
2023/01/02 10:41:52;;;;;;;7.97;6.65;;;13.20;84.10;;;;;;1892503;76;21451;-58
2023/01/02 10:44:31;;;;;;;9.88;6.50;;;13.20;84.00;;;;;;1891874;76;21084;-57
2023/01/02 10:47:12;;;;;;;8.58;6.55;;;13.20;84.20;;;;;;1893210;76;21091;-58
2023/01/02 10:49:43;;;;;;;12.25;6.80;;;13.20;83.90;;;;;;1892378;76;21151;-58
2023/01/02 10:52:20;;;;;;;10.28;7.35;;;13.20;83.50;;;;;;1893246;76;21009;-58
2023/01/02 10:54:59;;;;;;;9.35;7.20;;;13.20;83.90;;;;;;1893183;75;21070;-58
2023/01/02 10:57:33;;;;;;;12.55;6.60;;;13.20;83.60;;;;;;1893230;76;21079;-58
2023/01/02 11:00:04;;;;;;;9.65;6.45;;;13.20;83.80;;;;;;1893346;76;21041;-58
2023/01/02 11:02:41;;;;;;;9.33;7.42;;;13.20;83.60;;;;;;1893211;76;21161;-58
2023/01/02 11:05:12;;;;;;;14.15;7.58;;;13.20;83.40;;;;;;1893251;76;21094;-58
2023/01/02 11:07:44;;;;;;;9.78;7.72;;;13.20;83.30;;;;;;1891014;76;21208;-58
2023/01/02 11:10:28;;;;;;;11.20;7.70;;;13.20;82.90;;;;;;1893142;76;21032;-58
2023/01/02 11:13:02;;;;;;;7.10;5.58;;;13.20;83.50;;;;;;1887546;76;21122;-58
2023/01/02 11:15:35;;;;;;;11.30;7.25;;;13.10;82.50;;;;;;1893457;76;21025;-58
2023/01/02 11:18:07;;;;;;;8.65;6.53;;;13.10;83.50;;;;;;1893207;76;21505;-58
2023/01/02 11:20:37;;;;;;;13.30;8.20;;;13.10;83.10;;;;;;1892103;76;21127;-58
2023/01/02 11:23:07;;;;;;;11.43;7.55;;;13.20;83.50;;;;;;1893194;76;21083;-58
2023/01/02 11:25:43;;;;;;;8.88;6.75;;;13.10;83.80;;;;;;1893150;76;20989;-58
2023/01/02 11:28:24;;;;;;;8.90;6.47;;;13.10;83.20;;;;;;1893219;76;21075;-58
2023/01/02 11:31:05;;;;;;;7.50;6.10;;;13.20;83.50;;;;;;1891863;76;21166;-58
2023/01/02 11:33:36;;;;;;;8.30;6.95;;;13.20;82.70;;;;;;1891728;76;21106;-58
2023/01/02 11:36:13;;;;;;;9.43;7.10;;;13.20;82.90;;;;;;1893075;76;21162;-58
2023/01/02 11:38:53;;;;;;;8.40;6.03;;;13.20;83.20;;;;;;1893116;76;21118;-58
2023/01/02 11:44:29;;;;;;;9.05;7.40;;;13.20;82.90;;;;;;1893456;76;21045;-58
2023/01/02 11:47:00;;;;;;;16.50;6.95;;;13.10;83.20;;;;;;1893218;76;21024;-58
2023/01/02 11:49:34;;;;;;;14.13;7.17;;;13.10;83.10;;;;;;1893283;76;21008;-58
2023/01/02 11:52:03;;;;;;;;;;;13.10;83.30;;;;;;1895375;76;21111;-58
2023/01/02 11:54:48;;;;;;;7.72;6.65;;;13.10;82.70;;;;;;1891359;75;20460;-58
2023/01/02 11:57:20;;;;;;;8.58;6.87;;;13.10;83.30;;;;;;1889751;76;21040;-58
2023/01/02 11:59:52;;;;;;;8.68;7.10;;;13.10;83.50;;;;;;1887992;76;21102;-58
2023/01/02 12:02:42;;;;;;;8.50;6.10;;;13.10;83.70;;;;;;1890020;76;21048;-58
2023/01/02 12:05:15;;;;;;;11.45;6.90;;;13.10;83.30;;;;;;1889423;76;21056;-58
2023/01/02 12:07:47;;;;;;;9.40;7.80;;;13.10;83.20;;;;;;1888819;76;21239;-58
2023/01/02 12:10:28;;;;;;;8.25;6.40;;;13.10;83.40;;;;;;1887829;76;21048;-58
2023/01/02 12:13:21;;;;;;;7.37;5.75;;;13.10;83.10;;;;;;1889249;76;21086;-58
2023/01/02 12:16:20;;;;;;;9.38;6.42;;;13.10;83.40;;;;;;1889926;76;21017;-59
2023/01/02 12:18:55;;;;;;;9.80;6.80;;;13.10;83.20;;;;;;1890036;76;21112;-58
2023/01/02 12:21:26;;;;;;;7.30;6.15;;;13.10;83.20;;;;;;1888804;76;21037;-58
2023/01/02 12:24:14;;;;;;;10.58;7.10;;;13.10;83.10;;;;;;1890159;76;21104;-58
2023/01/02 12:26:55;;;;;;;9.00;7.00;;;13.10;83.30;;;;;;1890181;76;21087;-58
2023/01/02 12:29:52;;;;;;;8.33;6.55;;;13.10;83.10;;;;;;1889599;76;21596;-58
2023/01/02 12:32:43;;;;;;;9.90;6.83;;;13.10;83.10;;;;;;1865734;76;21004;-58
2023/01/02 12:35:18;;;;;;;8.88;6.87;;;13.00;83.40;;;;;;1890091;76;21033;-59
2023/01/02 12:37:55;;;;;;;17.42;8.33;;;13.00;83.60;;;;;;1889677;76;21037;-58
2023/01/02 12:40:53;;;;;;;9.80;7.40;;;13.00;83.70;;;;;;1890038;76;21498;-58
2023/01/02 12:43:34;;;;;;;8.60;6.53;;;13.00;83.70;;;;;;1889466;76;21447;-58
2023/01/02 12:46:21;;;;;;;8.10;6.60;;;13.00;83.80;;;;;;1889962;76;21012;-58
2023/01/02 12:48:56;;;;;;;10.45;7.25;;;13.00;83.60;;;;;;1888891;76;21079;-58
2023/01/02 12:51:34;;;;;;;11.00;7.00;;;12.90;83.90;;;;;;1889481;76;21052;-58
2023/01/02 12:54:25;;;;;;;8.65;6.75;;;12.90;83.70;;;;;;1874253;75;21053;-58
2023/01/02 12:57:04;;;;;;;58.60;37.30;;;12.80;84.00;;;;;;1893209;76;21053;-59
2023/01/02 12:59:58;;;;;;;21.82;14.53;;;12.80;83.90;;;;;;1893126;76;21047;-58
2023/01/02 13:02:39;;;;;;;11.20;7.47;;;12.80;84.60;;;;;;1893147;76;21001;-59
2023/01/02 13:05:14;;;;;;;11.18;7.10;;;12.80;84.20;;;;;;1893116;76;21044;-59
2023/01/02 13:07:50;;;;;;;21.65;14.10;;;12.80;84.30;;;;;;1892882;76;21091;-58
2023/01/02 13:10:25;;;;;;;20.40;10.65;;;12.70;84.30;;;;;;1893084;76;21037;-58
2023/01/02 13:12:56;;;;;;;15.72;9.85;;;12.80;84.60;;;;;;1893211;76;21032;-59
2023/01/02 13:15:34;;;;;;;12.82;9.05;;;12.70;84.40;;;;;;1893050;75;21106;-59
2023/01/02 13:18:15;;;;;;;12.55;7.87;;;12.70;84.40;;;;;;1893144;76;21100;-59